sensor_id;sensor_type;location;lat;lon;timestamp;pressure;altitude;pressure_sealevel;temperature;humidity
59073;BME280;44859;51.934;15.554;2023-08-20T00:01:40;100030.94;;;23.00;75.40
59073;BME280;44859;51.934;15.554;2023-08-20T00:04:16;100032.63;;;23.01;75.32
59073;BME280;44859;51.934;15.554;2023-08-20T00:07:09;100028.75;;;22.97;75.49
59073;BME280;44859;51.934;15.554;2023-08-20T00:09:48;100028.17;;;22.86;75.70
59073;BME280;44859;51.934;15.554;2023-08-20T00:12:26;100030.23;;;22.81;75.54
59073;BME280;44859;51.934;15.554;2023-08-20T00:15:28;100027.11;;;22.77;75.75
59073;BME280;44859;51.934;15.554;2023-08-20T00:18:32;100023.65;;;22.66;75.84
59073;BME280;44859;51.934;15.554;2023-08-20T00:21:25;100023.64;;;22.65;75.96
59073;BME280;44859;51.934;15.554;2023-08-20T00:31:16;100033.02;;;22.64;75.92
59073;BME280;44859;51.934;15.554;2023-08-20T00:33:46;100032.05;;;22.53;76.18
59073;BME280;44859;51.934;15.554;2023-08-20T00:36:45;100037.17;;;22.46;76.37
59073;BME280;44859;51.934;15.554;2023-08-20T00:42:49;100036.30;;;22.35;76.64
59073;BME280;44859;51.934;15.554;2023-08-20T00:45:20;100034.31;;;22.29;76.77
59073;BME280;44859;51.934;15.554;2023-08-20T00:47:59;100031.23;;;22.25;76.96
59073;BME280;44859;51.934;15.554;2023-08-20T00:50:39;100031.39;;;22.20;77.16
59073;BME280;44859;51.934;15.554;2023-08-20T00:53:36;100030.58;;;22.17;77.32
59073;BME280;44859;51.934;15.554;2023-08-20T00:56:07;100031.67;;;22.15;77.40
59073;BME280;44859;51.934;15.554;2023-08-20T00:59:10;100031.84;;;22.09;77.69
59073;BME280;44859;51.934;15.554;2023-08-20T01:01:53;100031.33;;;22.05;77.79
59073;BME280;44859;51.934;15.554;2023-08-20T01:04:47;100029.85;;;22.00;77.89
59073;BME280;44859;51.934;15.554;2023-08-20T01:11:33;100034.96;;;21.97;78.16
59073;BME280;44859;51.934;15.554;2023-08-20T01:14:26;100031.06;;;21.91;78.36
59073;BME280;44859;51.934;15.554;2023-08-20T01:17:24;100033.83;;;21.92;78.28
59073;BME280;44859;51.934;15.554;2023-08-20T01:20:29;100032.63;;;22.08;77.82
59073;BME280;44859;51.934;15.554;2023-08-20T01:23:56;100028.58;;;22.33;77.22
59073;BME280;44859;51.934;15.554;2023-08-20T01:26:46;100027.21;;;22.53;76.57
59073;BME280;44859;51.934;15.554;2023-08-20T01:29:48;100027.08;;;22.58;76.13
59073;BME280;44859;51.934;15.554;2023-08-20T01:32:44;100026.88;;;22.66;75.62
59073;BME280;44859;51.934;15.554;2023-08-20T01:35:55;100027.50;;;22.78;75.08
59073;BME280;44859;51.934;15.554;2023-08-20T01:39:10;100023.66;;;22.85;74.65
59073;BME280;44859;51.934;15.554;2023-08-20T01:41:38;100024.66;;;22.89;74.38
59073;BME280;44859;51.934;15.554;2023-08-20T01:44:35;100027.98;;;22.90;74.20
59073;BME280;44859;51.934;15.554;2023-08-20T01:48:00;100029.16;;;22.89;74.01
59073;BME280;44859;51.934;15.554;2023-08-20T01:51:25;100024.12;;;22.91;73.73
59073;BME280;44859;51.934;15.554;2023-08-20T01:54:14;100020.05;;;22.94;73.50
59073;BME280;44859;51.934;15.554;2023-08-20T01:57:40;100021.89;;;22.93;73.49
59073;BME280;44859;51.934;15.554;2023-08-20T02:00:11;100024.52;;;22.94;73.42
59073;BME280;44859;51.934;15.554;2023-08-20T02:02:48;100021.48;;;22.94;73.32
59073;BME280;44859;51.934;15.554;2023-08-20T02:06:15;100025.51;;;22.93;73.53
59073;BME280;44859;51.934;15.554;2023-08-20T02:19:30;100030.86;;;22.84;73.67
59073;BME280;44859;51.934;15.554;2023-08-20T02:22:22;100032.52;;;22.80;73.92
59073;BME280;44859;51.934;15.554;2023-08-20T02:25:26;100033.14;;;22.75;74.08
59073;BME280;44859;51.934;15.554;2023-08-20T02:35:13;100029.77;;;22.58;74.67
59073;BME280;44859;51.934;15.554;2023-08-20T02:41:03;100025.13;;;22.54;75.03
59073;BME280;44859;51.934;15.554;2023-08-20T02:47:24;100026.04;;;22.51;75.35
59073;BME280;44859;51.934;15.554;2023-08-20T02:50:25;100021.15;;;22.47;75.49
59073;BME280;44859;51.934;15.554;2023-08-20T02:53:10;100019.84;;;22.44;75.81
59073;BME280;44859;51.934;15.554;2023-08-20T02:55:43;100020.89;;;22.41;75.82
59073;BME280;44859;51.934;15.554;2023-08-20T02:58:49;100017.60;;;22.36;76.18
59073;BME280;44859;51.934;15.554;2023-08-20T03:01:46;100019.48;;;22.31;76.27
59073;BME280;44859;51.934;15.554;2023-08-20T03:04:47;100018.66;;;22.26;76.68
59073;BME280;44859;51.934;15.554;2023-08-20T03:07:33;100017.41;;;22.20;76.90
59073;BME280;44859;51.934;15.554;2023-08-20T03:10:16;100014.73;;;22.16;76.98
59073;BME280;44859;51.934;15.554;2023-08-20T03:13:26;100015.08;;;22.13;77.22
59073;BME280;44859;51.934;15.554;2023-08-20T03:16:21;100016.02;;;22.02;77.63
59073;BME280;44859;51.934;15.554;2023-08-20T03:19:00;100016.47;;;21.94;77.89
59073;BME280;44859;51.934;15.554;2023-08-20T03:21:42;100017.89;;;21.84;78.32
59073;BME280;44859;51.934;15.554;2023-08-20T03:24:27;100025.34;;;21.75;78.87
59073;BME280;44859;51.934;15.554;2023-08-20T03:27:22;100022.94;;;21.72;79.23
59073;BME280;44859;51.934;15.554;2023-08-20T03:29:51;100023.25;;;21.76;79.37
59073;BME280;44859;51.934;15.554;2023-08-20T03:32:32;100028.02;;;21.81;79.27
59073;BME280;44859;51.934;15.554;2023-08-20T03:36:02;100028.70;;;21.83;79.49
59073;BME280;44859;51.934;15.554;2023-08-20T03:39:16;100027.77;;;21.84;79.69
59073;BME280;44859;51.934;15.554;2023-08-20T03:42:46;100031.63;;;21.81;79.66
59073;BME280;44859;51.934;15.554;2023-08-20T03:45:12;100030.86;;;21.79;79.95
59073;BME280;44859;51.934;15.554;2023-08-20T03:47:50;100030.84;;;21.77;80.07
59073;BME280;44859;51.934;15.554;2023-08-20T03:51:05;100031.38;;;21.78;80.15
59073;BME280;44859;51.934;15.554;2023-08-20T03:53:45;100034.30;;;21.78;80.23
59073;BME280;44859;51.934;15.554;2023-08-20T03:56:44;100036.52;;;21.80;80.41
59073;BME280;44859;51.934;15.554;2023-08-20T03:59:38;100038.63;;;21.82;80.52
59073;BME280;44859;51.934;15.554;2023-08-20T04:02:44;100039.11;;;21.83;80.62
59073;BME280;44859;51.934;15.554;2023-08-20T04:05:27;100041.73;;;21.85;80.63
59073;BME280;44859;51.934;15.554;2023-08-20T04:08:18;100043.65;;;21.92;80.51
59073;BME280;44859;51.934;15.554;2023-08-20T04:11:10;100045.03;;;21.98;80.24
59073;BME280;44859;51.934;15.554;2023-08-20T04:13:58;100045.03;;;22.08;79.87
59073;BME280;44859;51.934;15.554;2023-08-20T04:17:22;100046.75;;;22.16;79.51
59073;BME280;44859;51.934;15.554;2023-08-20T04:20:59;100049.29;;;22.25;79.16
59073;BME280;44859;51.934;15.554;2023-08-20T04:23:23;100053.48;;;22.29;79.11
59073;BME280;44859;51.934;15.554;2023-08-20T04:26:14;100060.18;;;22.30;79.13
59073;BME280;44859;51.934;15.554;2023-08-20T04:28:55;100058.36;;;22.32;78.91
59073;BME280;44859;51.934;15.554;2023-08-20T04:31:37;100053.92;;;22.32;78.94
59073;BME280;44859;51.934;15.554;2023-08-20T04:34:10;100055.58;;;22.32;78.89
59073;BME280;44859;51.934;15.554;2023-08-20T04:40:21;100059.84;;;22.25;79.16
59073;BME280;44859;51.934;15.554;2023-08-20T04:43:16;100062.36;;;22.21;79.31
59073;BME280;44859;51.934;15.554;2023-08-20T04:46:10;100069.02;;;22.17;79.42
59073;BME280;44859;51.934;15.554;2023-08-20T04:49:26;100070.59;;;22.16;79.36
59073;BME280;44859;51.934;15.554;2023-08-20T04:52:02;100069.58;;;22.13;79.59
59073;BME280;44859;51.934;15.554;2023-08-20T04:55:09;100071.94;;;22.11;79.75
59073;BME280;44859;51.934;15.554;2023-08-20T04:58:11;100073.84;;;22.09;79.86
59073;BME280;44859;51.934;15.554;2023-08-20T05:01:05;100073.60;;;22.06;80.15
59073;BME280;44859;51.934;15.554;2023-08-20T05:10:51;100082.98;;;22.13;80.21
59073;BME280;44859;51.934;15.554;2023-08-20T05:17:17;100096.19;;;22.23;80.16
59073;BME280;44859;51.934;15.554;2023-08-20T05:20:15;100099.66;;;22.28;79.99
59073;BME280;44859;51.934;15.554;2023-08-20T05:23:19;100101.00;;;22.31;79.92
59073;BME280;44859;51.934;15.554;2023-08-20T05:26:16;100103.11;;;22.30;79.84
59073;BME280;44859;51.934;15.554;2023-08-20T05:29:21;100099.85;;;22.30;79.86
59073;BME280;44859;51.934;15.554;2023-08-20T05:32:11;100101.64;;;22.30;79.65
59073;BME280;44859;51.934;15.554;2023-08-20T05:35:05;100101.23;;;22.33;79.85
59073;BME280;44859;51.934;15.554;2023-08-20T05:40:53;100103.39;;;22.35;79.85
59073;BME280;44859;51.934;15.554;2023-08-20T05:43:23;100107.39;;;22.39;80.25
59073;BME280;44859;51.934;15.554;2023-08-20T05:49:39;100106.27;;;22.42;80.07
59073;BME280;44859;51.934;15.554;2023-08-20T05:52:12;100106.16;;;22.47;80.09
59073;BME280;44859;51.934;15.554;2023-08-20T05:54:57;100102.77;;;22.51;79.82
59073;BME280;44859;51.934;15.554;2023-08-20T05:57:31;100105.88;;;22.57;79.59
59073;BME280;44859;51.934;15.554;2023-08-20T06:07:44;100112.58;;;22.79;79.02
59073;BME280;44859;51.934;15.554;2023-08-20T06:10:45;100112.00;;;22.86;78.93
59073;BME280;44859;51.934;15.554;2023-08-20T06:13:13;100113.53;;;22.98;78.58
59073;BME280;44859;51.934;15.554;2023-08-20T06:19:48;100116.63;;;23.09;77.81
59073;BME280;44859;51.934;15.554;2023-08-20T06:22:25;100121.48;;;23.20;77.53
59073;BME280;44859;51.934;15.554;2023-08-20T06:24:55;100129.90;;;23.29;77.26
59073;BME280;44859;51.934;15.554;2023-08-20T06:27:43;100131.26;;;23.39;76.52
59073;BME280;44859;51.934;15.554;2023-08-20T06:30:13;100134.51;;;23.41;75.83
59073;BME280;44859;51.934;15.554;2023-08-20T06:33:22;100133.98;;;23.41;75.59
59073;BME280;44859;51.934;15.554;2023-08-20T06:36:11;100135.71;;;23.43;75.37
59073;BME280;44859;51.934;15.554;2023-08-20T06:38:44;100138.95;;;23.54;75.34
59073;BME280;44859;51.934;15.554;2023-08-20T06:44:19;100128.89;;;24.02;74.67
59073;BME280;44859;51.934;15.554;2023-08-20T06:47:09;100125.63;;;24.27;73.96
59073;BME280;44859;51.934;15.554;2023-08-20T06:50:41;100126.90;;;24.61;73.25
59073;BME280;44859;51.934;15.554;2023-08-20T06:53:07;100129.52;;;25.00;72.56
59073;BME280;44859;51.934;15.554;2023-08-20T06:55:44;100130.11;;;25.27;71.71
59073;BME280;44859;51.934;15.554;2023-08-20T06:59:02;100130.69;;;25.51;70.51
59073;BME280;44859;51.934;15.554;2023-08-20T07:02:11;100133.66;;;25.74;69.14
59073;BME280;44859;51.934;15.554;2023-08-20T07:07:39;100135.13;;;26.15;68.24
59073;BME280;44859;51.934;15.554;2023-08-20T07:10:12;100139.09;;;26.27;67.70
59073;BME280;44859;51.934;15.554;2023-08-20T07:12:49;100136.52;;;26.41;67.02
59073;BME280;44859;51.934;15.554;2023-08-20T07:15:22;100140.19;;;26.51;66.45
59073;BME280;44859;51.934;15.554;2023-08-20T07:18:10;100146.74;;;26.72;66.57
59073;BME280;44859;51.934;15.554;2023-08-20T07:20:43;100145.08;;;26.92;65.97
59073;BME280;44859;51.934;15.554;2023-08-20T07:23:11;100142.16;;;27.05;65.65
59073;BME280;44859;51.934;15.554;2023-08-20T07:25:40;100143.38;;;27.17;64.90
59073;BME280;44859;51.934;15.554;2023-08-20T07:28:12;100143.14;;;27.28;64.09
59073;BME280;44859;51.934;15.554;2023-08-20T07:30:41;100141.75;;;27.33;63.35
59073;BME280;44859;51.934;15.554;2023-08-20T07:33:09;100141.46;;;27.46;63.07
59073;BME280;44859;51.934;15.554;2023-08-20T07:35:39;100141.33;;;27.57;62.30
59073;BME280;44859;51.934;15.554;2023-08-20T07:38:06;100145.45;;;27.73;61.16
59073;BME280;44859;51.934;15.554;2023-08-20T07:40:54;100147.02;;;27.83;60.30
59073;BME280;44859;51.934;15.554;2023-08-20T07:43:21;100142.05;;;27.94;59.97
59073;BME280;44859;51.934;15.554;2023-08-20T07:45:51;100143.54;;;28.07;59.27
59073;BME280;44859;51.934;15.554;2023-08-20T07:48:27;100143.23;;;28.16;59.16
59073;BME280;44859;51.934;15.554;2023-08-20T07:50:54;100146.98;;;28.25;58.75
59073;BME280;44859;51.934;15.554;2023-08-20T07:53:33;100149.83;;;28.38;58.36
59073;BME280;44859;51.934;15.554;2023-08-20T07:56:03;100157.14;;;28.52;58.38
59073;BME280;44859;51.934;15.554;2023-08-20T07:58:38;100159.64;;;28.57;57.87
59073;BME280;44859;51.934;15.554;2023-08-20T08:01:09;100161.24;;;28.66;57.36
59073;BME280;44859;51.934;15.554;2023-08-20T08:03:40;100165.38;;;28.67;57.58
59073;BME280;44859;51.934;15.554;2023-08-20T08:06:07;100170.49;;;28.85;58.08
59073;BME280;44859;51.934;15.554;2023-08-20T08:08:35;100174.24;;;28.95;57.34
59073;BME280;44859;51.934;15.554;2023-08-20T08:11:02;100178.61;;;28.89;57.13
59073;BME280;44859;51.934;15.554;2023-08-20T08:13:29;100174.28;;;28.71;57.40
59073;BME280;44859;51.934;15.554;2023-08-20T08:15:57;100175.71;;;28.51;57.83
59073;BME280;44859;51.934;15.554;2023-08-20T08:18:27;100177.73;;;28.45;57.88
59073;BME280;44859;51.934;15.554;2023-08-20T08:20:54;100174.33;;;28.37;57.95
59073;BME280;44859;51.934;15.554;2023-08-20T08:23:24;100168.41;;;28.25;57.70
59073;BME280;44859;51.934;15.554;2023-08-20T08:25:51;100165.38;;;28.17;57.94
59073;BME280;44859;51.934;15.554;2023-08-20T08:28:20;100163.98;;;28.11;57.98
59073;BME280;44859;51.934;15.554;2023-08-20T08:30:48;100156.98;;;28.18;58.04
59073;BME280;44859;51.934;15.554;2023-08-20T08:33:24;100157.81;;;28.30;58.32
59073;BME280;44859;51.934;15.554;2023-08-20T08:35:59;100157.52;;;28.57;58.61
59073;BME280;44859;51.934;15.554;2023-08-20T08:38:33;100166.98;;;28.96;58.41
59073;BME280;44859;51.934;15.554;2023-08-20T08:41:12;100174.60;;;29.19;57.93
59073;BME280;44859;51.934;15.554;2023-08-20T08:43:42;100177.30;;;29.29;57.75
59073;BME280;44859;51.934;15.554;2023-08-20T08:46:13;100179.30;;;29.39;56.61
59073;BME280;44859;51.934;15.554;2023-08-20T08:48:45;100179.63;;;29.35;56.57
59073;BME280;44859;51.934;15.554;2023-08-20T08:51:13;100178.33;;;29.06;56.30
59073;BME280;44859;51.934;15.554;2023-08-20T08:53:43;100178.90;;;28.98;57.07
59073;BME280;44859;51.934;15.554;2023-08-20T08:56:11;100185.23;;;29.00;56.71
59073;BME280;44859;51.934;15.554;2023-08-20T08:58:38;100188.92;;;28.99;56.04
59073;BME280;44859;51.934;15.554;2023-08-20T09:01:06;100191.36;;;29.00;55.64
59073;BME280;44859;51.934;15.554;2023-08-20T09:03:33;100194.94;;;29.02;55.85
59073;BME280;44859;51.934;15.554;2023-08-20T09:06:01;100195.24;;;29.12;56.55
59073;BME280;44859;51.934;15.554;2023-08-20T09:08:32;100199.02;;;29.28;56.21
59073;BME280;44859;51.934;15.554;2023-08-20T09:11:00;100202.08;;;29.29;54.74
59073;BME280;44859;51.934;15.554;2023-08-20T09:13:42;100204.71;;;29.26;55.26
59073;BME280;44859;51.934;15.554;2023-08-20T09:16:11;100208.98;;;29.39;55.64
59073;BME280;44859;51.934;15.554;2023-08-20T09:18:39;100211.17;;;29.40;55.85
59073;BME280;44859;51.934;15.554;2023-08-20T09:21:08;100210.06;;;29.39;54.87
59073;BME280;44859;51.934;15.554;2023-08-20T09:23:55;100208.45;;;29.21;54.93
59073;BME280;44859;51.934;15.554;2023-08-20T09:26:28;100203.23;;;29.25;54.80
59073;BME280;44859;51.934;15.554;2023-08-20T09:28:55;100199.70;;;29.48;54.60
59073;BME280;44859;51.934;15.554;2023-08-20T09:31:45;100202.59;;;29.61;53.64
59073;BME280;44859;51.934;15.554;2023-08-20T09:34:15;100202.35;;;29.72;53.52
59073;BME280;44859;51.934;15.554;2023-08-20T09:37:01;100197.80;;;29.87;51.82
59073;BME280;44859;51.934;15.554;2023-08-20T09:39:28;100193.33;;;30.12;51.21
59073;BME280;44859;51.934;15.554;2023-08-20T09:41:57;100195.08;;;30.34;51.21
59073;BME280;44859;51.934;15.554;2023-08-20T09:44:33;100192.95;;;30.51;50.84
59073;BME280;44859;51.934;15.554;2023-08-20T09:47:05;100198.35;;;30.62;50.63
59073;BME280;44859;51.934;15.554;2023-08-20T09:49:42;100197.08;;;30.75;49.44
59073;BME280;44859;51.934;15.554;2023-08-20T09:52:12;100196.98;;;30.69;49.08
59073;BME280;44859;51.934;15.554;2023-08-20T09:54:52;100196.42;;;30.58;49.34
59073;BME280;44859;51.934;15.554;2023-08-20T09:57:39;100199.50;;;30.54;49.75
59073;BME280;44859;51.934;15.554;2023-08-20T10:00:11;100203.08;;;30.40;50.09
59073;BME280;44859;51.934;15.554;2023-08-20T10:02:42;100204.20;;;30.20;50.43
59073;BME280;44859;51.934;15.554;2023-08-20T10:05:13;100201.77;;;30.18;51.15
59073;BME280;44859;51.934;15.554;2023-08-20T10:08:04;100201.28;;;30.39;51.75
59073;BME280;44859;51.934;15.554;2023-08-20T10:10:45;100198.17;;;30.70;52.43
59073;BME280;44859;51.934;15.554;2023-08-20T10:13:23;100197.96;;;30.77;53.23
59073;BME280;44859;51.934;15.554;2023-08-20T10:16:12;100197.24;;;30.65;53.17
59073;BME280;44859;51.934;15.554;2023-08-20T10:19:02;100202.01;;;30.79;53.95
59073;BME280;44859;51.934;15.554;2023-08-20T10:21:52;100203.68;;;30.59;54.72
59073;BME280;44859;51.934;15.554;2023-08-20T10:24:19;100197.73;;;30.40;54.86
59073;BME280;44859;51.934;15.554;2023-08-20T10:27:22;100195.30;;;30.35;55.01
59073;BME280;44859;51.934;15.554;2023-08-20T10:30:25;100194.09;;;30.52;55.06
59073;BME280;44859;51.934;15.554;2023-08-20T10:33:02;100195.90;;;30.73;53.77
59073;BME280;44859;51.934;15.554;2023-08-20T10:38:07;100200.80;;;30.66;52.09
59073;BME280;44859;51.934;15.554;2023-08-20T10:41:08;100198.02;;;30.78;52.17
59073;BME280;44859;51.934;15.554;2023-08-20T10:43:40;100196.98;;;30.99;51.95
59073;BME280;44859;51.934;15.554;2023-08-20T10:46:21;100202.35;;;30.88;51.60
59073;BME280;44859;51.934;15.554;2023-08-20T10:51:33;100200.47;;;31.00;51.69
59073;BME280;44859;51.934;15.554;2023-08-20T10:54:11;100196.10;;;31.10;50.86
59073;BME280;44859;51.934;15.554;2023-08-20T10:57:08;100197.09;;;31.39;51.45
59073;BME280;44859;51.934;15.554;2023-08-20T10:59:40;100197.55;;;31.59;51.39
59073;BME280;44859;51.934;15.554;2023-08-20T11:02:14;100197.92;;;31.46;51.37
59073;BME280;44859;51.934;15.554;2023-08-20T11:04:43;100194.47;;;31.41;52.02
59073;BME280;44859;51.934;15.554;2023-08-20T11:07:17;100194.99;;;31.52;52.16
59073;BME280;44859;51.934;15.554;2023-08-20T11:09:50;100195.07;;;31.68;52.51
59073;BME280;44859;51.934;15.554;2023-08-20T11:12:22;100191.83;;;31.55;51.01
59073;BME280;44859;51.934;15.554;2023-08-20T11:14:49;100195.51;;;31.54;52.24
59073;BME280;44859;51.934;15.554;2023-08-20T11:17:19;100196.89;;;31.69;51.54
59073;BME280;44859;51.934;15.554;2023-08-20T11:19:48;100197.92;;;31.53;51.05
59073;BME280;44859;51.934;15.554;2023-08-20T11:22:35;100191.23;;;31.45;50.93
59073;BME280;44859;51.934;15.554;2023-08-20T11:25:15;100197.14;;;31.52;50.79
59073;BME280;44859;51.934;15.554;2023-08-20T11:27:45;100195.73;;;31.66;51.38
59073;BME280;44859;51.934;15.554;2023-08-20T11:30:13;100198.89;;;31.57;50.56
59073;BME280;44859;51.934;15.554;2023-08-20T11:32:48;100196.39;;;31.41;50.54
59073;BME280;44859;51.934;15.554;2023-08-20T11:35:29;100192.55;;;31.01;49.86
59073;BME280;44859;51.934;15.554;2023-08-20T11:38:24;100192.69;;;30.75;50.75
59073;BME280;44859;51.934;15.554;2023-08-20T11:41:13;100188.76;;;30.61;51.46
59073;BME280;44859;51.934;15.554;2023-08-20T11:43:46;100189.07;;;30.63;52.45
59073;BME280;44859;51.934;15.554;2023-08-20T11:46:21;100188.38;;;30.54;52.71
59073;BME280;44859;51.934;15.554;2023-08-20T11:49:04;100186.35;;;30.47;53.02
59073;BME280;44859;51.934;15.554;2023-08-20T11:51:42;100186.83;;;30.79;52.46
59073;BME280;44859;51.934;15.554;2023-08-20T11:54:22;100187.72;;;31.03;52.27
59073;BME280;44859;51.934;15.554;2023-08-20T11:57:02;100188.75;;;31.07;51.63
59073;BME280;44859;51.934;15.554;2023-08-20T11:59:42;100191.16;;;30.98;51.17
59073;BME280;44859;51.934;15.554;2023-08-20T12:03:05;100187.23;;;30.84;51.22
59073;BME280;44859;51.934;15.554;2023-08-20T12:06:21;100185.36;;;30.69;52.03
59073;BME280;44859;51.934;15.554;2023-08-20T12:09:48;100179.08;;;30.63;52.72
59073;BME280;44859;51.934;15.554;2023-08-20T12:50:30;100155.09;;;30.78;53.77
59073;BME280;44859;51.934;15.554;2023-08-20T12:53:02;100156.95;;;30.85;51.93
59073;BME280;44859;51.934;15.554;2023-08-20T12:55:32;100161.04;;;31.01;50.94
59073;BME280;44859;51.934;15.554;2023-08-20T12:58:04;100158.84;;;31.30;50.47
59073;BME280;44859;51.934;15.554;2023-08-20T13:00:32;100156.19;;;31.38;49.59
59073;BME280;44859;51.934;15.554;2023-08-20T13:03:03;100153.92;;;31.62;50.07
59073;BME280;44859;51.934;15.554;2023-08-20T13:05:31;100152.41;;;31.90;48.90
59073;BME280;44859;51.934;15.554;2023-08-20T13:07:59;100156.66;;;32.11;48.94
59073;BME280;44859;51.934;15.554;2023-08-20T13:10:30;100153.75;;;32.06;47.91
59073;BME280;44859;51.934;15.554;2023-08-20T13:13:00;100157.48;;;32.08;47.60
59073;BME280;44859;51.934;15.554;2023-08-20T13:15:29;100155.25;;;32.16;47.42
59073;BME280;44859;51.934;15.554;2023-08-20T13:18:04;100157.67;;;32.18;47.14
59073;BME280;44859;51.934;15.554;2023-08-20T13:20:35;100156.11;;;32.10;46.35
59073;BME280;44859;51.934;15.554;2023-08-20T13:23:02;100157.16;;;31.97;46.12
59073;BME280;44859;51.934;15.554;2023-08-20T13:25:29;100158.12;;;31.95;45.97
59073;BME280;44859;51.934;15.554;2023-08-20T13:27:57;100156.34;;;32.04;45.34
59073;BME280;44859;51.934;15.554;2023-08-20T13:30:24;100150.02;;;32.16;45.01
59073;BME280;44859;51.934;15.554;2023-08-20T13:32:51;100150.27;;;32.10;44.80
59073;BME280;44859;51.934;15.554;2023-08-20T13:35:18;100148.98;;;31.94;45.32
59073;BME280;44859;51.934;15.554;2023-08-20T13:37:46;100148.79;;;31.97;45.38
59073;BME280;44859;51.934;15.554;2023-08-20T13:40:13;100148.80;;;32.06;45.66
59073;BME280;44859;51.934;15.554;2023-08-20T13:42:40;100140.53;;;32.28;46.09
59073;BME280;44859;51.934;15.554;2023-08-20T13:45:08;100139.38;;;32.52;46.12
59073;BME280;44859;51.934;15.554;2023-08-20T13:47:43;100143.52;;;32.33;45.65
59073;BME280;44859;51.934;15.554;2023-08-20T13:50:15;100145.08;;;31.73;45.79
59073;BME280;44859;51.934;15.554;2023-08-20T13:52:43;100152.00;;;31.39;46.15
59073;BME280;44859;51.934;15.554;2023-08-20T13:55:13;100148.55;;;30.98;46.88
59073;BME280;44859;51.934;15.554;2023-08-20T13:57:42;100144.77;;;30.65;47.65
59073;BME280;44859;51.934;15.554;2023-08-20T14:00:11;100146.23;;;30.32;48.41
59073;BME280;44859;51.934;15.554;2023-08-20T14:02:43;100137.38;;;30.07;49.00
59073;BME280;44859;51.934;15.554;2023-08-20T14:05:10;100140.11;;;29.96;49.13
59073;BME280;44859;51.934;15.554;2023-08-20T14:07:43;100137.96;;;30.20;49.48
59073;BME280;44859;51.934;15.554;2023-08-20T14:10:11;100137.29;;;30.61;49.44
59073;BME280;44859;51.934;15.554;2023-08-20T14:12:40;100137.05;;;30.99;48.79
59073;BME280;44859;51.934;15.554;2023-08-20T14:15:09;100137.91;;;31.16;47.96
59073;BME280;44859;51.934;15.554;2023-08-20T14:17:38;100137.52;;;31.28;47.68
59073;BME280;44859;51.934;15.554;2023-08-20T14:20:07;100137.38;;;31.44;47.62
59073;BME280;44859;51.934;15.554;2023-08-20T14:22:35;100134.60;;;31.60;47.20
59073;BME280;44859;51.934;15.554;2023-08-20T14:25:06;100134.34;;;31.69;47.33
59073;BME280;44859;51.934;15.554;2023-08-20T14:27:34;100140.29;;;31.69;46.58
59073;BME280;44859;51.934;15.554;2023-08-20T14:30:01;100142.71;;;31.65;46.37
59073;BME280;44859;51.934;15.554;2023-08-20T14:32:31;100140.01;;;31.56;46.48
59073;BME280;44859;51.934;15.554;2023-08-20T14:34:59;100140.31;;;31.47;46.08
59073;BME280;44859;51.934;15.554;2023-08-20T14:37:27;100138.83;;;31.31;45.86
59073;BME280;44859;51.934;15.554;2023-08-20T14:39:55;100136.95;;;31.17;46.21
59073;BME280;44859;51.934;15.554;2023-08-20T14:42:24;100139.05;;;31.17;46.76
59073;BME280;44859;51.934;15.554;2023-08-20T14:44:51;100137.52;;;31.21;46.60
59073;BME280;44859;51.934;15.554;2023-08-20T14:47:21;100138.04;;;31.23;46.32
59073;BME280;44859;51.934;15.554;2023-08-20T14:49:49;100141.15;;;31.11;45.96
59073;BME280;44859;51.934;15.554;2023-08-20T14:52:17;100136.59;;;31.02;45.84
59073;BME280;44859;51.934;15.554;2023-08-20T14:54:51;100136.35;;;30.88;45.98
59073;BME280;44859;51.934;15.554;2023-08-20T14:57:19;100136.70;;;30.84;46.33
59073;BME280;44859;51.934;15.554;2023-08-20T14:59:50;100133.77;;;30.80;46.27
59073;BME280;44859;51.934;15.554;2023-08-20T15:02:20;100129.96;;;30.72;46.63
59073;BME280;44859;51.934;15.554;2023-08-20T15:04:51;100126.23;;;30.58;46.97
59073;BME280;44859;51.934;15.554;2023-08-20T15:07:19;100128.35;;;30.51;47.00
59073;BME280;44859;51.934;15.554;2023-08-20T15:09:46;100127.46;;;30.43;46.80
59073;BME280;44859;51.934;15.554;2023-08-20T15:12:14;100128.07;;;30.35;47.14
59073;BME280;44859;51.934;15.554;2023-08-20T15:14:43;100127.52;;;30.31;47.14
59073;BME280;44859;51.934;15.554;2023-08-20T15:17:10;100126.88;;;30.23;47.16
59073;BME280;44859;51.934;15.554;2023-08-20T15:20:00;100127.84;;;30.18;47.25
59073;BME280;44859;51.934;15.554;2023-08-20T15:22:29;100122.94;;;30.13;47.69
59073;BME280;44859;51.934;15.554;2023-08-20T15:24:57;100119.22;;;30.05;47.58
59073;BME280;44859;51.934;15.554;2023-08-20T15:27:24;100117.70;;;29.97;47.91
59073;BME280;44859;51.934;15.554;2023-08-20T15:29:52;100112.65;;;29.97;48.22
59073;BME280;44859;51.934;15.554;2023-08-20T15:32:29;100115.66;;;29.99;48.56
59073;BME280;44859;51.934;15.554;2023-08-20T15:34:57;100115.48;;;30.00;48.61
59073;BME280;44859;51.934;15.554;2023-08-20T15:37:24;100113.05;;;29.98;49.00
59073;BME280;44859;51.934;15.554;2023-08-20T15:40:06;100109.13;;;29.92;49.22
59073;BME280;44859;51.934;15.554;2023-08-20T15:42:36;100107.47;;;29.90;49.51
59073;BME280;44859;51.934;15.554;2023-08-20T15:45:04;100109.14;;;29.89;49.88
59073;BME280;44859;51.934;15.554;2023-08-20T15:47:34;100110.56;;;29.89;50.26
59073;BME280;44859;51.934;15.554;2023-08-20T15:50:02;100110.67;;;29.92;50.73